Ana Sayfa
METAR-TAF:

METAR-TAF

Havaalanları :

Penn Valley Airport

Selinsgrove, Pensilvanya, Amerika Birleşik Devletleri

Enlem: 40-49-09N, Boylam: 076-51-58W, yükseklik: 137 m

Güncel hava durumu gözlemi

Rapor saat 04:53 UTC de 31 dakika önce yapıldı.
Rüzgar doğu/kuzeydoğudan 4 kt
Sıcaklık 23°C
Nem 94%
Basınç 1012 hPa
Görüş mesafesi: 16.1 km
Açık gökyüzü

METAR: KSEG 220453Z AUTO 06004KT 10SM CLR 23/22 A2987 RMK AO2 LTG DSNT NE RAE32 SLP110 P0004 T02330217 403500228

Saat: 01:24 (05:24 UTC)


TAF: eksik

4.000'den fazla havaalanı için hava durumu gözlemleri ve tahminleri (METAR ve TAF raporları).

Kullanılabilir istasyonlar harita üzerinde sarı ve kırmızı noktalarla gösterilir.

İstasyonun adını görmek için fareyi noktanın üzerinde gezdirin.

Sonrasında hava gözlem ve tahminlerini görmek için tıklayın.

Haritayı değiştirmek için: yaklaştırmak için siyah artı işaretli yeşil düğmeye ve uzaklaştırmak için de eksi işaretli düğmeye hızla tıklayın; bitişik haritalar için yeşil okları kullanın.


METAR-TAF: